Time;durP1;ratioP1;P1;durP2;ratioP2;P2;SDS_P1;SDS_P2;PMS_P1;PMS_P2;Temp;Humidity;BMP_temperature;BMP_pressure;BME280_temperature;BME280_humidity;BME280_pressure;Samples;Min_cycle;Max_cycle;Signal;HPM_P1;HPM_P2
2022/11/27 00:01:39;;;;;;;65.32;26.98;;;;;;;6.55;100.00;95490.22;5080344;28;20040;-85
2022/11/27 00:04:05;;;;;;;63.22;25.58;;;;;;;6.69;100.00;95496.91;5079761;28;20039;-85
2022/11/27 00:06:32;;;;;;;55.08;24.90;;;;;;;6.70;100.00;95492.47;5063296;28;20118;-85
2022/11/27 00:09:02;;;;;;;55.25;24.40;;;;;;;6.75;100.00;95485.63;5097779;28;20470;-85
2022/11/27 00:11:29;;;;;;;57.03;26.98;;;;;;;6.58;100.00;95495.78;5079756;28;20168;-85
2022/11/27 00:13:55;;;;;;;53.38;24.00;;;;;;;6.64;100.00;95491.53;5079647;28;20028;-85
2022/11/27 00:16:21;;;;;;;53.00;23.08;;;;;;;6.64;100.00;95507.16;5079644;28;20032;-85
2022/11/27 00:18:46;;;;;;;49.58;24.08;;;;;;;6.49;100.00;95486.66;5063302;28;20028;-85
2022/11/27 00:21:27;;;;;;;62.55;25.25;;;;;;;6.46;100.00;95493.09;5079683;28;20047;-85
2022/11/27 00:23:54;;;;;;;66.15;26.52;;;;;;;6.45;100.00;95495.88;5063052;28;20028;-85
2022/11/27 00:26:21;;;;;;;71.43;27.83;;;;;;;6.31;100.00;95490.81;5062928;28;20024;-86
2022/11/27 00:28:46;;;;;;;62.67;26.92;;;;;;;6.50;100.00;95496.84;5079286;28;20083;-85
2022/11/27 00:31:17;;;;;;;66.15;27.92;;;;;;;6.14;100.00;95487.94;5079130;28;20441;-86
2022/11/27 00:33:43;;;;;;;71.72;30.02;;;;;;;6.46;100.00;95487.88;5079097;28;20455;-86
2022/11/27 00:36:09;;;;;;;73.10;30.52;;;;;;;6.48;100.00;95491.06;5079236;28;20114;-86
2022/11/27 00:38:37;;;;;;;60.03;26.70;;;;;;;6.59;100.00;95491.38;5079485;28;20042;-85
2022/11/27 00:41:14;;;;;;;67.38;26.63;;;;;;;6.70;100.00;95489.88;5079275;28;20070;-85
2022/11/27 00:43:40;;;;;;;56.08;25.58;;;;;;;6.58;100.00;95495.78;5079153;28;20031;-85
2022/11/27 00:46:05;;;;;;;60.30;26.83;;;;;;;6.51;100.00;95489.84;5079602;28;20028;-86
2022/11/27 00:48:31;;;;;;;54.08;24.23;;;;;;;6.59;100.00;95489.56;5078623;28;20138;-85
2022/11/27 00:51:02;;;;;;;61.42;26.08;;;;;;;6.76;100.00;95487.22;5078713;28;20451;-85
2022/11/27 00:53:27;;;;;;;63.25;27.05;;;;;;;6.50;100.00;95477.84;5079120;28;20322;-85
2022/11/27 00:55:54;;;;;;;57.67;25.15;;;;;;;6.65;100.00;95480.09;5078934;28;20030;-85
2022/11/27 00:58:20;;;;;;;58.30;25.48;;;;;;;6.44;100.00;95482.09;5062411;28;20122;-85
2022/11/27 01:00:55;;;;;;;61.33;27.00;;;;;;;6.12;100.00;95492.56;5079108;28;20071;-85
2022/11/27 01:03:21;;;;;;;69.10;27.80;;;;;;;6.16;100.00;95487.69;5079531;28;20428;-85
2022/11/27 01:05:46;;;;;;;57.65;25.20;;;;;;;6.19;100.00;95492.50;5079127;28;20080;-85
2022/11/27 01:08:11;;;;;;;65.28;27.52;;;;;;;6.26;100.00;95480.22;5078754;28;20038;-85
2022/11/27 01:10:37;;;;;;;49.13;24.27;;;;;;;6.36;100.00;95485.75;5078979;28;20034;-85
2022/11/27 01:13:02;;;;;;;60.25;25.50;;;;;;;6.23;100.00;95483.25;5079359;28;20036;-86
2022/11/27 01:15:28;;;;;;;65.00;28.00;;;;;;;6.23;100.00;95481.44;5097262;28;20032;-85
2022/11/27 01:17:53;;;;;;;62.28;25.75;;;;;;;6.29;100.00;95485.00;5096711;28;20024;-86
2022/11/27 01:20:18;;;;;;;63.78;25.55;;;;;;;6.17;100.00;95491.91;5062029;28;20028;-85
2022/11/27 01:22:44;;;;;;;52.17;23.15;;;;;;;6.23;100.00;95484.03;5062268;28;20429;-85
2022/11/27 01:25:09;;;;;;;51.15;23.50;;;;;;;6.25;100.00;95483.84;5078660;28;20027;-85
2022/11/27 01:27:35;;;;;;;50.05;22.20;;;;;;;6.30;100.00;95491.03;5061886;28;20020;-86
2022/11/27 01:30:00;;;;;;;57.67;24.83;;;;;;;6.22;100.00;95498.06;5096542;28;20126;-85
2022/11/27 01:32:25;;;;;;;62.38;27.02;;;;;;;6.29;100.00;95492.81;5061683;28;20348;-86
2022/11/27 01:34:51;;;;;;;65.90;25.98;;;;;;;6.40;100.00;95487.94;5096854;28;20479;-86
2022/11/27 01:37:19;;;;;;;50.58;23.52;;;;;;;6.46;100.00;95482.66;5062305;28;20329;-86
2022/11/27 01:39:44;;;;;;;67.95;26.92;;;;;;;6.45;100.00;95488.06;5082018;28;20375;-87
2022/11/27 01:42:10;;;;;;;56.08;24.05;;;;;;;6.42;100.00;95485.91;5078579;28;20028;-87
2022/11/27 01:44:36;;;;;;;63.03;25.52;;;;;;;6.31;100.00;95479.59;5085727;28;20456;-87
2022/11/27 01:47:08;;;;;;;57.25;25.17;;;;;;;6.56;100.00;95482.19;5102331;28;20035;-87
2022/11/27 01:49:49;;;;;;;62.20;26.52;;;;;;;6.48;100.00;95480.66;5086468;28;20036;-87
2022/11/27 01:52:21;;;;;;;53.67;23.98;;;;;;;6.55;100.00;95478.00;5089146;28;20114;-87
2022/11/27 01:54:55;;;;;;;55.10;24.58;;;;;;;6.72;100.00;95480.03;5078949;28;20032;-87
2022/11/27 01:57:25;;;;;;;47.00;22.20;;;;;;;6.66;100.00;95471.28;5078717;28;20028;-87
2022/11/27 01:59:52;;;;;;;59.35;21.40;;;;;;;6.65;100.00;95460.06;5078582;28;20436;-87
2022/11/27 02:02:20;;;;;;;54.92;22.58;;;;;;;6.31;100.00;95456.16;5063845;28;20031;-87
2022/11/27 02:04:45;;;;;;;52.20;24.33;;;;;;;6.32;100.00;95468.97;5099100;28;20050;-87
2022/11/27 02:07:11;;;;;;;58.15;24.10;;;;;;;6.19;100.00;95461.28;5082250;28;20103;-87
2022/11/27 02:09:36;;;;;;;53.10;22.55;;;;;;;5.83;100.00;95465.28;5082436;28;20028;-86
2022/11/27 02:12:15;;;;;;;59.97;22.73;;;;;;;6.06;100.00;95462.97;5065332;28;20039;-86
2022/11/27 02:15:23;;;;;;;65.20;25.67;;;;;;;5.99;100.00;95458.78;5099921;28;20077;-86
2022/11/27 02:17:51;;;;;;;48.15;22.23;;;;;;;5.91;100.00;95457.25;5099254;28;20035;-86
2022/11/27 02:20:38;;;;;;;69.68;26.48;;;;;;;6.06;100.00;95451.75;5082051;28;20425;-86
2022/11/27 02:23:14;;;;;;;67.28;27.50;;;;;;;6.06;100.00;95454.34;5081807;28;20417;-86
2022/11/27 02:26:14;;;;;;;66.47;28.08;;;;;;;5.93;100.00;95452.63;5065206;28;20067;-86
2022/11/27 02:29:04;;;;;;;74.95;29.38;;;;;;;5.99;100.00;95448.38;5081757;28;20063;-86
2022/11/27 02:31:32;;;;;;;68.90;29.45;;;;;;;5.91;100.00;95454.63;5082210;28;20063;-86
2022/11/27 02:34:11;;;;;;;75.47;28.00;;;;;;;5.86;100.00;95455.25;5099638;28;20039;-86
2022/11/27 02:36:39;;;;;;;75.95;28.10;;;;;;;6.03;100.00;95453.00;5081772;28;20109;-86
2022/11/27 02:39:10;;;;;;;67.72;25.52;;;;;;;6.07;100.00;95450.75;5081669;28;20436;-86
2022/11/27 02:41:47;;;;;;;60.38;24.33;;;;;;;6.12;100.00;95450.09;5064982;28;20039;-86
2022/11/27 02:44:17;;;;;;;52.55;22.38;;;;;;;6.30;100.00;95452.75;5081989;28;20459;-86
2022/11/27 02:46:44;;;;;;;52.22;22.98;;;;;;;6.27;100.00;95458.41;5099345;28;20027;-86
2022/11/27 02:49:13;;;;;;;57.92;22.13;;;;;;;6.29;100.00;95448.56;5081608;28;20462;-86
2022/11/27 02:51:41;;;;;;;47.15;20.27;;;;;;;6.18;100.00;95452.66;5081049;28;20055;-86
2022/11/27 02:54:11;;;;;;;43.50;20.42;;;;;;;6.06;100.00;95444.75;5064888;28;20034;-86
2022/11/27 02:56:37;;;;;;;47.83;19.90;;;;;;;5.97;100.00;95448.59;5064745;28;20036;-86
2022/11/27 02:59:06;;;;;;;43.17;19.58;;;;;;;6.00;100.00;95437.75;5081408;28;20038;-86
2022/11/27 03:01:35;;;;;;;47.00;17.27;;;;;;;6.09;100.00;95438.31;5064468;28;20034;-86
2022/11/27 03:04:05;;;;;;;39.03;16.45;;;;;;;6.17;100.00;95432.84;5080948;28;20122;-86
2022/11/27 03:06:36;;;;;;;39.13;17.40;;;;;;;6.09;100.00;95433.09;5065008;28;20028;-86
2022/11/27 03:09:18;;;;;;;33.88;15.23;;;;;;;5.99;100.00;95430.94;5064754;28;20085;-86
2022/11/27 03:11:44;;;;;;;41.03;16.20;;;;;;;5.88;100.00;95435.03;5064292;28;20341;-86
2022/11/27 03:14:09;;;;;;;34.05;15.82;;;;;;;5.83;100.00;95431.47;5063960;28;20039;-86
2022/11/27 03:17:13;;;;;;;47.50;18.13;;;;;;;6.09;100.00;95430.50;5081330;28;20145;-86
2022/11/27 03:19:46;;;;;;;37.83;15.73;;;;;;;5.94;100.00;95431.56;5098688;28;20028;-86
2022/11/27 03:22:11;;;;;;;36.40;15.45;;;;;;;5.70;100.00;95421.97;5080724;28;20458;-86
2022/11/27 03:24:37;;;;;;;37.80;14.45;;;;;;;5.89;100.00;95415.81;5064169;28;20032;-86
2022/11/27 03:27:06;;;;;;;44.58;15.90;;;;;;;5.85;100.00;95419.84;5064193;28;20035;-86
2022/11/27 03:29:43;;;;;;;32.67;14.18;;;;;;;5.97;100.00;95417.38;5080785;28;20596;-86
2022/11/27 03:32:09;;;;;;;32.85;14.13;;;;;;;5.88;100.00;95410.81;5080838;28;20031;-86
2022/11/27 03:34:35;;;;;;;38.30;15.27;;;;;;;5.84;100.00;95413.06;5080326;28;20028;-86
2022/11/27 03:37:00;;;;;;;27.27;13.88;;;;;;;5.78;100.00;95411.28;5080650;28;20028;-86
2022/11/27 03:39:26;;;;;;;32.25;12.60;;;;;;;5.80;100.00;95409.28;5080533;28;20031;-86
2022/11/27 03:42:31;;;;;;;21.85;10.32;;;;;;;5.36;100.00;95411.75;5063756;28;20020;-86
2022/11/27 03:45:18;;;;;;;25.67;11.80;;;;;;;5.89;100.00;95404.63;5066281;28;20429;-86
2022/11/27 03:47:52;;;;;;;20.88;9.57;;;;;;;5.97;100.00;95398.38;5080483;28;20055;-86
2022/11/27 03:50:58;;;;;;;26.70;10.13;;;;;;;6.02;100.00;95401.94;5079867;28;20055;-86
2022/11/27 03:53:47;;;;;;;26.33;9.75;;;;;;;6.00;100.00;95405.75;5063648;28;20119;-88
2022/11/27 03:56:43;;;;;;;25.42;10.63;;;;;;;6.14;100.00;95403.84;5063802;28;20024;-87
2022/11/27 03:59:11;;;;;;;24.13;9.23;;;;;;;5.93;100.00;95406.56;5106132;28;20084;-88
2022/11/27 04:01:37;;;;;;;20.25;9.10;;;;;;;5.91;100.00;95402.63;5073479;28;20043;-88
2022/11/27 04:04:02;;;;;;;26.38;9.43;;;;;;;5.91;100.00;95406.00;5081415;28;20430;-87
2022/11/27 04:06:27;;;;;;;20.23;8.07;;;;;;;5.88;100.00;95403.81;5111718;28;20040;-88
2022/11/27 04:08:56;;;;;;;20.45;7.75;;;;;;;5.97;100.00;95400.97;5092026;28;20043;-87
2022/11/27 04:11:21;;;;;;;20.70;7.85;;;;;;;5.63;100.00;95396.00;5083736;28;20027;-88
2022/11/27 04:13:47;;;;;;;26.58;8.00;;;;;;;5.92;100.00;95394.56;5100238;28;20027;-87
2022/11/27 04:16:12;;;;;;;23.27;7.68;;;;;;;5.97;100.00;95391.34;5118552;28;20039;-88
2022/11/27 04:18:38;;;;;;;19.20;6.88;;;;;;;5.97;100.00;95393.94;5100318;28;20019;-88
2022/11/27 04:21:10;;;;;;;19.60;7.78;;;;;;;6.00;100.00;95393.53;5068389;28;20057;-87
2022/11/27 04:23:37;;;;;;;18.55;6.45;;;;;;;5.94;100.00;95389.19;5081123;28;20043;-87
2022/11/27 04:26:05;;;;;;;17.00;7.70;;;;;;;5.59;100.00;95398.22;5079651;28;20432;-88
2022/11/27 04:28:31;;;;;;;27.77;8.52;;;;;;;5.55;100.00;95399.66;5080285;28;20451;-88
2022/11/27 04:30:56;;;;;;;15.65;6.47;;;;;;;5.78;100.00;95408.69;5079745;28;20036;-88
2022/11/27 04:33:22;;;;;;;16.63;5.85;;;;;;;5.88;100.00;95413.41;5079880;28;20081;-88
2022/11/27 04:35:48;;;;;;;17.58;5.25;;;;;;;6.08;100.00;95416.72;5079736;28;20119;-87
2022/11/27 04:38:14;;;;;;;14.00;5.45;;;;;;;5.94;100.00;95408.16;5079399;28;20115;-87
2022/11/27 04:40:39;;;;;;;12.85;5.18;;;;;;;5.86;100.00;95416.25;5062886;28;20066;-88
2022/11/27 04:43:05;;;;;;;13.93;5.32;;;;;;;6.04;100.00;95412.13;5079327;28;20024;-88
2022/11/27 04:45:31;;;;;;;15.73;5.65;;;;;;;6.01;100.00;95418.56;5079323;28;20098;-87
2022/11/27 04:47:56;;;;;;;12.57;4.93;;;;;;;5.98;100.00;95418.16;5079715;28;20036;-87
2022/11/27 04:50:21;;;;;;;11.55;4.82;;;;;;;5.98;100.00;95418.16;5079150;28;20057;-87
2022/11/27 04:52:47;;;;;;;16.05;5.40;;;;;;;5.86;100.00;95418.03;5097312;28;20031;-87
2022/11/27 04:55:14;;;;;;;11.80;4.68;;;;;;;5.96;100.00;95413.16;5079125;28;20035;-88
2022/11/27 04:57:40;;;;;;;9.65;4.80;;;;;;;5.95;100.00;95408.97;5079743;28;20035;-88
2022/11/27 05:00:06;;;;;;;10.82;4.20;;;;;;;5.90;100.00;95408.81;5062381;28;20028;-87
2022/11/27 05:02:39;;;;;;;13.43;4.25;;;;;;;5.63;100.00;95411.59;5079242;28;20059;-87
2022/11/27 05:05:04;;;;;;;19.35;5.03;;;;;;;5.76;100.00;95410.72;5080180;28;20031;-87
2022/11/27 05:07:30;;;;;;;15.45;5.05;;;;;;;5.58;100.00;95403.63;5078956;28;20424;-88
2022/11/27 05:09:55;;;;;;;11.77;4.43;;;;;;;5.73;100.00;95400.72;5079345;28;20329;-87
2022/11/27 05:12:23;;;;;;;13.90;4.68;;;;;;;5.88;100.00;95400.41;5079527;28;20024;-87
2022/11/27 05:14:51;;;;;;;11.30;4.85;;;;;;;5.85;100.00;95403.44;5062400;28;20028;-88
2022/11/27 05:17:26;;;;;;;;;;;;;;;;;;;;;
2022/11/27 05:19:52;;;;;;;10.63;4.40;;;;;;;5.80;100.00;95398.88;5080283;28;20020;-87
2022/11/27 05:22:17;;;;;;;10.70;4.72;;;;;;;5.59;100.00;95400.00;5079133;28;20030;-87
2022/11/27 05:24:42;;;;;;;11.30;4.40;;;;;;;5.69;100.00;95404.78;5079013;28;20024;-87
2022/11/27 05:27:10;;;;;;;10.50;4.28;;;;;;;5.59;100.00;95407.81;5078869;28;20066;-87
2022/11/27 05:29:36;;;;;;;16.20;4.70;;;;;;;5.50;100.00;95392.47;5062197;28;20031;-87
2022/11/27 05:32:01;;;;;;;14.02;5.53;;;;;;;5.54;100.00;95410.25;5078942;28;20332;-87
2022/11/27 05:34:26;;;;;;;18.30;6.68;;;;;;;5.69;100.00;95397.75;5098966;28;20440;-86
2022/11/27 05:36:52;;;;;;;16.50;6.30;;;;;;;5.62;100.00;95397.78;5100338;28;20155;-85
2022/11/27 05:39:17;;;;;;;14.40;5.60;;;;;;;5.64;100.00;95397.59;5103243;28;20031;-85
2022/11/27 05:41:43;;;;;;;14.80;5.30;;;;;;;5.67;100.00;95397.16;5103047;28;20497;-85
2022/11/27 05:44:13;;;;;;;17.52;5.45;;;;;;;5.54;100.00;95397.25;5085957;28;20031;-85
2022/11/27 05:46:38;;;;;;;11.30;4.80;;;;;;;5.53;100.00;95393.88;5121510;28;20131;-85
2022/11/27 05:49:05;;;;;;;12.63;4.97;;;;;;;5.48;100.00;95402.28;5085607;28;20106;-85
2022/11/27 05:51:30;;;;;;;12.38;4.57;;;;;;;5.62;100.00;95410.78;5102755;28;20023;-84
2022/11/27 05:53:56;;;;;;;13.80;4.70;;;;;;;5.47;100.00;95403.31;5103105;28;20034;-85
2022/11/27 05:56:21;;;;;;;12.60;5.18;;;;;;;5.45;100.00;95401.91;5085887;28;20321;-84
2022/11/27 05:58:47;;;;;;;14.70;5.55;;;;;;;5.33;100.00;95402.56;5085480;28;20168;-84
2022/11/27 06:01:14;;;;;;;11.10;5.20;;;;;;;5.57;100.00;95402.03;5102411;28;20436;-84
2022/11/27 06:03:40;;;;;;;14.18;4.65;;;;;;;5.52;100.00;95405.25;5120603;28;20030;-84
2022/11/27 06:06:11;;;;;;;14.23;5.07;;;;;;;5.45;100.00;95399.31;5120848;28;20336;-84
2022/11/27 06:08:37;;;;;;;12.70;5.15;;;;;;;5.13;100.00;95401.88;5102434;28;20136;-84
2022/11/27 06:11:10;;;;;;;11.02;5.43;;;;;;;5.40;100.00;95401.75;5102168;28;20104;-84
2022/11/27 06:13:35;;;;;;;;;;;;;;;5.57;100.00;95408.03;5102661;28;20023;-84
2022/11/27 06:16:10;;;;;;;13.90;4.93;;;;;;;5.41;100.00;95406.72;5102281;28;19908;-84
2022/11/27 06:18:35;;;;;;;12.38;5.57;;;;;;;5.43;100.00;95407.31;5102141;28;20036;-84
2022/11/27 06:21:07;;;;;;;13.80;5.78;;;;;;;5.59;100.00;95400.81;5101985;28;20027;-84
2022/11/27 06:23:33;;;;;;;17.10;5.13;;;;;;;5.62;100.00;95410.00;5085428;28;20019;-84
2022/11/27 06:26:11;;;;;;;15.07;5.05;;;;;;;5.85;100.00;95417.25;5102168;28;20106;-85
2022/11/27 06:28:36;;;;;;;18.35;5.00;;;;;;;5.84;100.00;95420.06;5102255;28;20027;-84
2022/11/27 06:31:23;;;;;;;15.00;4.97;;;;;;;6.00;100.00;95424.75;5085075;28;20023;-84
2022/11/27 06:33:50;;;;;;;12.88;4.30;;;;;;;6.02;100.00;95420.16;5101683;28;20027;-86
2022/11/27 06:36:16;;;;;;;15.45;5.03;;;;;;;6.07;100.00;95417.72;5077510;28;20046;-85
2022/11/27 06:38:42;;;;;;;12.98;5.38;;;;;;;5.96;100.00;95422.78;5078885;28;20359;-84
2022/11/27 06:41:16;;;;;;;14.00;5.10;;;;;;;6.01;100.00;95434.16;5065245;28;20032;-84
2022/11/27 06:43:41;;;;;;;14.93;4.93;;;;;;;6.01;100.00;95431.56;5064873;28;20030;-84
2022/11/27 06:46:10;;;;;;;12.23;4.20;;;;;;;5.94;100.00;95441.97;5081713;28;20032;-83
2022/11/27 06:48:35;;;;;;;10.65;4.30;;;;;;;5.88;100.00;95448.03;5080865;28;20032;-84
2022/11/27 06:51:03;;;;;;;10.98;4.53;;;;;;;5.87;100.00;95445.63;5064674;28;20030;-83
2022/11/27 06:53:29;;;;;;;15.15;4.82;;;;;;;6.04;100.00;95444.16;5080709;28;20071;-84
2022/11/27 06:55:55;;;;;;;12.23;4.43;;;;;;;6.07;100.00;95443.75;5081584;28;20035;-84
2022/11/27 06:58:21;;;;;;;10.38;4.45;;;;;;;6.08;100.00;95447.13;5063098;28;20020;-84
2022/11/27 07:00:46;;;;;;;10.60;5.22;;;;;;;6.07;100.00;95454.16;5080756;28;20443;-84
2022/11/27 07:03:12;;;;;;;17.00;4.40;;;;;;;6.11;100.00;95451.13;5080896;28;20028;-84
2022/11/27 07:05:37;;;;;;;15.52;4.55;;;;;;;6.04;100.00;95459.78;5081172;28;20039;-84
2022/11/27 07:08:03;;;;;;;13.18;5.00;;;;;;;6.01;100.00;95467.16;5064145;28;20027;-84
2022/11/27 07:10:32;;;;;;;10.40;4.40;;;;;;;6.17;100.00;95460.66;5080567;28;20115;-84
2022/11/27 07:12:57;;;;;;;11.63;4.22;;;;;;;5.99;100.00;95462.16;5080684;28;20028;-84
2022/11/27 07:15:23;;;;;;;10.93;4.18;;;;;;;6.04;100.00;95446.78;5064079;28;20047;-84
2022/11/27 07:17:48;;;;;;;9.70;4.68;;;;;;;6.16;100.00;95454.69;5098903;28;20115;-84
2022/11/27 07:20:14;;;;;;;14.30;6.30;;;;;;;6.31;100.00;95446.56;5080222;28;20024;-84
2022/11/27 07:22:39;;;;;;;14.25;6.20;;;;;;;6.36;100.00;95449.31;5099111;28;20531;-84
2022/11/27 07:25:05;;;;;;;14.77;7.20;;;;;;;6.49;100.00;95453.59;5080514;28;20361;-84
2022/11/27 07:27:31;;;;;;;14.88;6.57;;;;;;;6.57;100.00;95449.16;5080435;28;20085;-84
2022/11/27 07:29:56;;;;;;;12.73;6.10;;;;;;;6.62;100.00;95450.09;5080357;28;20038;-84
2022/11/27 07:32:21;;;;;;;15.65;6.10;;;;;;;6.62;100.00;95452.69;5080500;28;20032;-84
2022/11/27 07:34:47;;;;;;;13.20;5.90;;;;;;;6.79;100.00;95452.91;5098408;28;20465;-84
2022/11/27 07:37:12;;;;;;;12.68;5.40;;;;;;;6.92;100.00;95454.59;5098193;28;20028;-84
2022/11/27 07:39:37;;;;;;;12.65;5.40;;;;;;;7.00;100.00;95450.91;5100199;28;20047;-84
2022/11/27 07:42:03;;;;;;;11.15;4.90;;;;;;;7.04;100.00;95454.66;5100679;28;20070;-84
2022/11/27 07:44:28;;;;;;;13.75;5.97;;;;;;;7.06;100.00;95449.25;5100384;28;20444;-84
2022/11/27 07:46:54;;;;;;;19.10;5.95;;;;;;;7.06;100.00;95447.41;5118651;28;20084;-84
2022/11/27 07:49:19;;;;;;;12.10;5.78;;;;;;;7.26;100.00;95458.63;5083574;28;20054;-84
2022/11/27 07:51:44;;;;;;;10.43;5.03;;;;;;;7.05;100.00;95442.44;5118531;28;20114;-84
2022/11/27 07:54:10;;;;;;;9.13;5.22;;;;;;;7.21;100.00;95457.50;5083483;28;20023;-84
2022/11/27 07:56:35;;;;;;;11.90;4.25;;;;;;;7.24;100.00;95450.25;5083375;28;20035;-84
2022/11/27 07:59:01;;;;;;;10.05;4.57;;;;;;;7.12;100.00;95452.78;5099504;28;20019;-84
2022/11/27 08:01:26;;;;;;;11.40;4.38;;;;;;;7.19;100.00;95454.31;5083166;28;20113;-84
2022/11/27 08:03:52;;;;;;;10.23;4.57;;;;;;;7.42;100.00;95460.66;5100215;28;20035;-84
2022/11/27 08:06:19;;;;;;;10.18;5.30;;;;;;;7.66;100.00;95452.94;5099905;28;20032;-84
2022/11/27 08:08:45;;;;;;;14.20;5.28;;;;;;;7.66;100.00;95459.94;5100099;28;20035;-84
2022/11/27 08:11:23;;;;;;;17.90;5.30;;;;;;;7.40;100.00;95452.25;5082978;28;20068;-84
2022/11/27 08:13:49;;;;;;;11.43;4.85;;;;;;;7.34;100.00;95464.34;5083087;28;20039;-84
2022/11/27 08:16:14;;;;;;;14.95;5.20;;;;;;;7.54;100.00;95450.28;5099724;28;20101;-84
2022/11/27 08:18:40;;;;;;;11.65;5.57;;;;;;;7.75;100.00;95451.59;5083057;28;20110;-84
2022/11/27 08:21:06;;;;;;;13.07;5.90;;;;;;;8.00;100.00;95455.84;5099569;28;20102;-84
2022/11/27 08:23:31;;;;;;;14.35;6.25;;;;;;;8.17;100.00;95455.19;5082796;28;20039;-84
2022/11/27 08:25:57;;;;;;;17.88;6.35;;;;;;;8.22;100.00;95460.56;5099567;28;20027;-84
2022/11/27 08:28:25;;;;;;;14.90;5.65;;;;;;;7.92;100.00;95464.03;5099482;28;20036;-84
2022/11/27 08:30:56;;;;;;;15.30;5.93;;;;;;;7.89;100.00;95462.63;5099671;28;20023;-84
2022/11/27 08:33:21;;;;;;;16.52;6.32;;;;;;;7.86;100.00;95467.50;5082718;28;20101;-84
2022/11/27 08:35:48;;;;;;;11.13;6.15;;;;;;;8.05;100.00;95468.22;5099588;28;20090;-84
2022/11/27 08:38:13;;;;;;;14.40;6.60;;;;;;;8.29;100.00;95469.06;5099828;28;20114;-84
2022/11/27 08:40:38;;;;;;;13.88;5.82;;;;;;;8.29;100.00;95465.69;5117523;28;20015;-84
2022/11/27 08:43:04;;;;;;;13.75;6.18;;;;;;;8.24;100.00;95465.53;5117731;28;20080;-84
2022/11/27 08:45:31;;;;;;;11.55;5.65;;;;;;;8.02;100.00;95472.06;5099430;28;20032;-84
2022/11/27 08:47:57;;;;;;;10.48;5.57;;;;;;;7.64;100.00;95460.97;5099625;28;20035;-84
2022/11/27 08:50:22;;;;;;;17.08;6.40;;;;;;;7.98;100.00;95472.78;5099039;28;20370;-84
2022/11/27 08:52:48;;;;;;;17.80;6.63;;;;;;;8.18;100.00;95472.47;5099077;28;20035;-84
2022/11/27 08:55:13;;;;;;;13.82;5.88;;;;;;;8.27;100.00;95467.72;5117096;28;20466;-84
2022/11/27 08:57:39;;;;;;;12.80;6.53;;;;;;;8.41;100.00;95468.28;5099278;28;20072;-84
2022/11/27 09:00:05;;;;;;;14.25;6.10;;;;;;;8.58;100.00;95463.22;5099193;28;20072;-84
2022/11/27 09:02:32;;;;;;;14.43;6.65;;;;;;;8.38;100.00;95458.31;5117348;28;20028;-84
2022/11/27 09:04:57;;;;;;;13.10;6.18;;;;;;;8.61;100.00;95466.19;5117096;28;20454;-84
2022/11/27 09:07:23;;;;;;;13.90;6.53;;;;;;;8.84;100.00;95463.81;5098878;28;20032;-84
2022/11/27 09:09:49;;;;;;;22.17;7.68;;;;;;;8.84;100.00;95464.56;5099186;28;20035;-84
2022/11/27 09:12:14;;;;;;;13.60;6.88;;;;;;;8.86;100.00;95465.13;5116761;28;20108;-84
2022/11/27 09:14:40;;;;;;;18.17;7.75;;;;;;;9.00;100.00;95464.91;5117315;28;20161;-84
2022/11/27 09:17:05;;;;;;;14.98;7.72;;;;;;;9.00;100.00;95454.44;5099123;28;20024;-84
2022/11/27 09:19:30;;;;;;;17.33;6.43;;;;;;;9.26;100.00;95452.34;5098824;28;20024;-84
2022/11/27 09:21:56;;;;;;;18.10;7.00;;;;;;;9.14;100.00;95449.78;5098959;28;20351;-84
2022/11/27 09:24:22;;;;;;;13.68;6.38;;;;;;;9.17;100.00;95450.09;5099043;28;20027;-84
2022/11/27 09:26:47;;;;;;;16.85;6.63;;;;;;;9.24;100.00;95449.19;5081734;28;20023;-84
2022/11/27 09:29:12;;;;;;;15.55;6.45;;;;;;;9.48;100.00;95453.31;5081960;28;20374;-84
2022/11/27 09:31:38;;;;;;;16.42;6.80;;;;;;;9.26;100.00;95449.72;5098508;28;20440;-84
2022/11/27 09:34:04;;;;;;;14.07;6.50;;;;;;;9.28;100.00;95445.06;5098752;28;20020;-84
2022/11/27 09:36:29;;;;;;;13.55;5.88;;;;;;;9.34;100.00;95446.75;5098782;28;20054;-84
2022/11/27 09:38:57;;;;;;;15.65;6.35;;;;;;;9.16;100.00;95437.25;5081971;28;20418;-84
2022/11/27 09:41:34;;;;;;;14.27;6.07;;;;;;;9.28;100.00;95437.22;5098724;28;20127;-84
2022/11/27 09:44:03;;;;;;;16.58;6.45;;;;;;;9.55;100.00;95440.09;5098883;28;20065;-84
2022/11/27 09:46:32;;;;;;;11.88;6.00;;;;;;;9.64;100.00;95444.94;5082102;28;20159;-84
2022/11/27 09:48:59;;;;;;;11.07;5.75;;;;;;;9.80;100.00;95452.03;5098784;28;20027;-84
2022/11/27 09:51:44;;;;;;;13.23;5.53;;;;;;;9.70;100.00;95442.19;5081709;28;20035;-84
2022/11/27 09:54:22;;;;;;;11.30;4.47;;;;;;;9.98;100.00;95451.03;5098640;28;20030;-84
2022/11/27 09:56:50;;;;;;;9.27;4.50;;;;;;;9.95;100.00;95448.09;5098523;28;20505;-84
2022/11/27 09:59:27;;;;;;;11.63;4.78;;;;;;;10.12;100.00;95451.53;5098425;28;20444;-84
2022/11/27 10:01:53;;;;;;;15.43;6.05;;;;;;;9.94;100.00;95452.53;5098363;28;20027;-84
2022/11/27 10:04:19;;;;;;;9.13;4.72;;;;;;;10.04;100.00;95451.91;5081789;28;20028;-84
2022/11/27 10:07:13;;;;;;;13.13;4.50;;;;;;;10.29;100.00;95441.06;5098406;28;20038;-84
2022/11/27 10:10:38;;;;;;;8.35;3.90;;;;;;;10.25;100.00;95439.94;5098369;28;20478;-84
2022/11/27 10:13:22;;;;;;;6.93;3.95;;;;;;;10.28;100.00;95442.09;5079920;28;20067;-84
2022/11/27 10:16:07;;;;;;;7.82;4.15;;;;;;;10.35;100.00;95435.91;5116737;28;20421;-84
2022/11/27 10:18:43;;;;;;;17.60;3.88;;;;;;;10.66;100.00;95431.13;5097835;28;20035;-84
2022/11/27 10:21:43;;;;;;;8.98;4.30;;;;;;;10.67;100.00;95437.97;5098197;28;20496;-84
2022/11/27 10:24:35;;;;;;;8.85;4.32;;;;;;;10.75;100.00;95435.72;5065343;28;20371;-84
2022/11/27 10:27:04;;;;;;;8.27;3.97;;;;;;;10.73;100.00;95437.78;5101758;28;20031;-83
2022/11/27 10:29:38;;;;;;;9.85;3.80;;;;;;;10.75;100.00;95433.09;5101907;28;20340;-84
2022/11/27 10:32:10;;;;;;;6.43;3.83;;;;;;;10.85;100.00;95435.06;5086903;28;20024;-86
2022/11/27 10:34:45;;;;;;;12.63;4.07;;;;;;;10.24;100.00;95427.88;5101870;28;20443;-84
2022/11/27 10:37:18;;;;;;;10.25;3.65;;;;;;;10.77;100.00;95432.06;5120239;28;20028;-84
2022/11/27 10:39:54;;;;;;;11.15;2.92;;;;;;;10.95;100.00;95423.91;5102023;28;20471;-84
2022/11/27 10:42:34;;;;;;;11.32;3.30;;;;;;;11.00;100.00;95417.94;5101958;28;20027;-84
2022/11/27 10:45:18;;;;;;;7.85;3.45;;;;;;;11.03;100.00;95409.56;5101707;28;20035;-84
2022/11/27 10:47:45;;;;;;;8.82;3.50;;;;;;;11.09;100.00;95403.38;5119688;28;20035;-89
2022/11/27 10:50:16;;;;;;;8.02;3.08;;;;;;;11.12;100.00;95397.63;5084762;28;20027;-89
2022/11/27 10:52:52;;;;;;;5.30;3.00;;;;;;;11.19;100.00;95394.81;5101955;28;20023;-89
2022/11/27 10:55:44;;;;;;;5.78;2.80;;;;;;;11.05;99.56;95396.22;5084972;28;20023;-89
2022/11/27 10:58:16;;;;;;;7.05;2.92;;;;;;;11.07;97.02;95400.19;5101202;28;20031;-89
2022/11/27 11:00:41;;;;;;;6.25;2.78;;;;;;;11.01;96.91;95401.16;5085332;28;20031;-89
2022/11/27 11:03:17;;;;;;;9.40;3.40;;;;;;;11.11;99.95;95390.81;5085268;28;20080;-89
2022/11/27 11:05:54;;;;;;;8.07;2.83;;;;;;;10.98;90.04;95386.72;5101732;28;20118;-89
2022/11/27 11:08:20;;;;;;;12.90;4.45;;;;;;;11.04;87.29;95384.94;5101310;28;20023;-88
2022/11/27 11:10:56;;;;;;;6.82;2.95;;;;;;;11.04;90.05;95387.56;5101445;28;20028;-89
2022/11/27 11:13:27;;;;;;;8.43;2.67;;;;;;;10.68;94.18;95374.81;5101337;28;20313;-89
2022/11/27 11:16:18;;;;;;;5.90;3.03;;;;;;;10.88;87.65;95369.03;5101486;28;20027;-88
2022/11/27 11:18:49;;;;;;;8.75;4.65;;;;;;;11.29;93.12;95371.34;5089180;28;20032;-87
2022/11/27 11:21:24;;;;;;;6.03;3.30;;;;;;;11.37;80.20;95364.03;5102957;28;20080;-88
2022/11/27 11:23:57;;;;;;;5.35;2.97;;;;;;;11.44;86.00;95362.81;5101238;28;20031;-88
2022/11/27 11:26:26;;;;;;;9.70;2.63;;;;;;;11.44;88.80;95356.78;5101535;28;20035;-87
2022/11/27 11:28:54;;;;;;;9.55;4.20;;;;;;;11.46;92.08;95350.22;5119587;28;20028;-87
2022/11/27 11:31:26;;;;;;;8.95;3.53;;;;;;;11.38;93.03;95348.06;5101345;28;20110;-88
2022/11/27 11:33:56;;;;;;;7.80;3.30;;;;;;;11.45;89.11;95338.16;5099997;28;20403;-87
2022/11/27 11:36:23;;;;;;;8.38;3.10;;;;;;;11.60;86.03;95340.13;5082265;28;20052;-88